Time;durP1;ratioP1;P1;durP2;ratioP2;P2;SDS_P1;SDS_P2;PMS_P1;PMS_P2;Temp;Humidity;BMP_temperature;BMP_pressure;BME280_temperature;BME280_humidity;BME280_pressure;Samples;Min_cycle;Max_cycle;Signal;HPM_P1;HPM_P2
2023/05/12 00:00:38;;;;;;;11.32;7.07;;;14.00;99.90;;;;;;5092435;28;20023;-84
2023/05/12 00:03:04;;;;;;;10.45;6.60;;;14.00;99.90;;;;;;5094029;28;20464;-87
2023/05/12 00:05:29;;;;;;;10.52;6.65;;;14.00;99.90;;;;;;5094771;28;20115;-89
2023/05/12 00:07:55;;;;;;;12.52;6.85;;;13.90;99.90;;;;;;5096163;28;20028;-88
2023/05/12 00:10:20;;;;;;;10.85;6.28;;;13.90;99.90;;;;;;5094172;28;20074;-89
2023/05/12 00:12:47;;;;;;;12.27;7.05;;;14.00;99.90;;;;;;5092666;28;20458;-88
2023/05/12 00:15:13;;;;;;;10.25;6.35;;;13.90;99.90;;;;;;5092732;28;20023;-88
2023/05/12 00:17:38;;;;;;;11.27;6.43;;;13.90;99.90;;;;;;5093430;28;20031;-88
2023/05/12 00:20:05;;;;;;;13.10;7.10;;;14.00;99.90;;;;;;5093964;28;20123;-88
2023/05/12 00:22:30;;;;;;;11.55;6.72;;;13.90;99.90;;;;;;5092178;28;20016;-89
2023/05/12 00:24:56;;;;;;;11.15;7.05;;;13.90;99.90;;;;;;5092913;28;20031;-86
2023/05/12 00:27:22;;;;;;;10.85;6.85;;;13.90;99.90;;;;;;5092789;28;20024;-86
2023/05/12 00:29:49;;;;;;;11.70;7.03;;;13.90;99.90;;;;;;5092309;28;20073;-85
2023/05/12 00:32:18;;;;;;;9.82;6.47;;;13.90;99.90;;;;;;5092769;28;20016;-86
2023/05/12 00:34:43;;;;;;;10.40;6.53;;;13.90;99.90;;;;;;5093452;28;20353;-86
2023/05/12 00:37:09;;;;;;;10.65;6.55;;;13.90;99.90;;;;;;5093562;28;20024;-86
2023/05/12 00:39:35;;;;;;;14.52;6.72;;;13.90;99.90;;;;;;5093146;28;20368;-87
2023/05/12 00:42:01;;;;;;;12.30;7.10;;;13.90;99.90;;;;;;5094838;28;20015;-86
2023/05/12 00:44:27;;;;;;;14.45;7.00;;;13.80;99.90;;;;;;5096105;28;20024;-86
2023/05/12 00:46:54;;;;;;;11.18;6.90;;;13.80;99.90;;;;;;5095646;28;20031;-87
2023/05/12 00:49:20;;;;;;;11.93;6.88;;;13.80;99.90;;;;;;5096188;28;20033;-86
2023/05/12 00:51:46;;;;;;;12.40;6.78;;;13.80;99.90;;;;;;5095883;28;20024;-86
2023/05/12 00:54:11;;;;;;;10.65;6.70;;;13.80;99.90;;;;;;5096102;28;20020;-86
2023/05/12 00:56:40;;;;;;;10.65;6.72;;;13.80;99.90;;;;;;5095639;28;20111;-86
2023/05/12 00:59:06;;;;;;;12.27;6.85;;;13.80;99.90;;;;;;5095964;28;20035;-86
2023/05/12 01:01:33;;;;;;;11.05;6.70;;;13.80;99.90;;;;;;5095591;28;20020;-87
2023/05/12 01:04:01;;;;;;;13.25;7.00;;;13.80;99.90;;;;;;5096093;28;20035;-86
2023/05/12 01:06:38;;;;;;;11.20;6.38;;;13.80;99.90;;;;;;5096817;28;20070;-86
2023/05/12 01:09:04;;;;;;;10.00;6.30;;;13.80;99.90;;;;;;5096795;28;20056;-86
2023/05/12 01:11:37;;;;;;;11.98;7.20;;;13.70;99.90;;;;;;5095687;28;20448;-86
2023/05/12 01:14:05;;;;;;;11.10;6.60;;;13.70;99.90;;;;;;5096346;28;20031;-85
2023/05/12 01:16:37;;;;;;;12.70;7.05;;;13.80;99.90;;;;;;5095496;28;20051;-85
2023/05/12 01:19:09;;;;;;;13.75;7.65;;;13.70;99.90;;;;;;5095633;28;20020;-84
2023/05/12 01:21:35;;;;;;;11.80;7.20;;;13.70;99.90;;;;;;5094980;28;20020;-86
2023/05/12 01:24:07;;;;;;;13.85;7.70;;;13.80;99.90;;;;;;5095441;28;20040;-85
2023/05/12 01:26:32;;;;;;;17.95;7.35;;;13.70;99.90;;;;;;5095218;28;20051;-90
2023/05/12 01:29:00;;;;;;;14.32;7.88;;;13.70;99.90;;;;;;5096443;28;20052;-85
2023/05/12 01:31:26;;;;;;;13.13;7.50;;;13.70;99.90;;;;;;5096261;28;20449;-86
2023/05/12 01:33:52;;;;;;;12.73;7.63;;;13.70;99.90;;;;;;5095957;28;20028;-85
2023/05/12 01:36:17;;;;;;;13.40;7.53;;;13.70;99.90;;;;;;5095481;28;20119;-86
2023/05/12 01:38:43;;;;;;;14.90;7.68;;;13.70;99.90;;;;;;5094616;28;20028;-86
2023/05/12 01:41:09;;;;;;;14.70;8.05;;;13.70;99.90;;;;;;5094674;28;20076;-85
2023/05/12 01:43:34;;;;;;;15.60;8.55;;;13.70;99.90;;;;;;5094622;28;20023;-85
2023/05/12 01:46:00;;;;;;;14.30;8.27;;;13.60;99.90;;;;;;5095028;28;20031;-85
2023/05/12 01:48:26;;;;;;;15.55;7.70;;;13.60;99.90;;;;;;5095142;28;20031;-85
2023/05/12 01:50:51;;;;;;;17.88;8.52;;;13.60;99.90;;;;;;5095552;28;20020;-85
2023/05/12 01:53:17;;;;;;;14.18;8.13;;;13.60;99.90;;;;;;5093817;28;20034;-86
2023/05/12 01:55:42;;;;;;;13.85;8.23;;;13.60;99.90;;;;;;5094613;28;20024;-86
2023/05/12 01:58:08;;;;;;;14.95;8.10;;;13.70;99.90;;;;;;5096057;28;20024;-86
2023/05/12 02:00:34;;;;;;;16.05;7.85;;;13.60;99.90;;;;;;5096103;28;20051;-86
2023/05/12 02:02:59;;;;;;;18.02;8.60;;;13.60;99.90;;;;;;5094787;28;20024;-86
2023/05/12 02:05:25;;;;;;;13.52;8.13;;;13.60;99.90;;;;;;5094904;28;20032;-86
2023/05/12 02:07:51;;;;;;;14.82;8.05;;;13.60;99.90;;;;;;5094114;28;20085;-86
2023/05/12 02:10:17;;;;;;;12.75;7.50;;;13.60;99.90;;;;;;5094483;28;20495;-86
2023/05/12 02:12:42;;;;;;;12.52;7.28;;;13.60;99.90;;;;;;5095057;28;20020;-86
2023/05/12 02:15:08;;;;;;;14.60;8.27;;;13.60;99.90;;;;;;5094090;28;20488;-86
2023/05/12 02:17:34;;;;;;;13.85;8.32;;;13.60;99.90;;;;;;5094586;28;20024;-86
2023/05/12 02:20:00;;;;;;;16.02;8.07;;;13.60;99.90;;;;;;5094069;28;20082;-86
2023/05/12 02:22:26;;;;;;;15.63;8.07;;;13.60;99.90;;;;;;5095260;28;20013;-86
2023/05/12 02:24:51;;;;;;;14.52;8.13;;;13.60;99.90;;;;;;5094702;28;20023;-86
2023/05/12 02:27:17;;;;;;;15.30;8.77;;;13.60;99.90;;;;;;5094212;28;20031;-85
2023/05/12 02:29:42;;;;;;;13.15;7.85;;;13.60;99.90;;;;;;5093703;28;20020;-85
2023/05/12 02:32:08;;;;;;;15.60;9.18;;;13.50;99.90;;;;;;5095174;28;20441;-85
2023/05/12 02:34:34;;;;;;;16.45;8.65;;;13.50;99.90;;;;;;5093972;28;20027;-87
2023/05/12 02:37:02;;;;;;;15.00;8.50;;;13.50;99.90;;;;;;5093432;28;20035;-85
2023/05/12 02:39:28;;;;;;;13.25;8.20;;;13.50;99.90;;;;;;5095252;28;20127;-86
2023/05/12 02:41:54;;;;;;;15.15;8.18;;;13.50;99.90;;;;;;5093795;28;20495;-86
2023/05/12 02:44:22;;;;;;;16.48;8.50;;;13.50;99.90;;;;;;5094059;28;20069;-86
2023/05/12 02:46:47;;;;;;;15.32;8.18;;;13.50;99.90;;;;;;5093513;28;20030;-87
2023/05/12 02:49:13;;;;;;;16.95;8.60;;;13.50;99.90;;;;;;5094000;28;20020;-86
2023/05/12 02:51:38;;;;;;;16.05;8.43;;;13.50;99.90;;;;;;5093407;28;20022;-87
2023/05/12 02:54:05;;;;;;;17.08;8.50;;;13.50;99.90;;;;;;5093709;28;20056;-86
2023/05/12 02:56:31;;;;;;;13.68;8.10;;;13.50;99.90;;;;;;5094717;28;20012;-87
2023/05/12 02:59:01;;;;;;;15.43;8.65;;;13.60;99.90;;;;;;5094426;28;20027;-86
2023/05/12 03:01:29;;;;;;;16.95;8.93;;;13.50;99.90;;;;;;5094066;28;20020;-87
2023/05/12 03:03:55;;;;;;;13.82;7.75;;;13.50;99.90;;;;;;5092978;28;20437;-86
2023/05/12 03:06:21;;;;;;;15.82;8.43;;;13.50;99.90;;;;;;5094279;28;20086;-86
2023/05/12 03:08:46;;;;;;;14.50;8.68;;;13.50;99.90;;;;;;5093166;28;20200;-87
2023/05/12 03:11:12;;;;;;;13.20;8.00;;;13.50;99.90;;;;;;5093770;28;20016;-86
2023/05/12 03:13:40;;;;;;;16.98;8.85;;;13.60;99.90;;;;;;5093101;28;20046;-87
2023/05/12 03:16:06;;;;;;;15.93;8.55;;;13.50;99.90;;;;;;5093269;28;20505;-86
2023/05/12 03:18:32;;;;;;;15.30;9.02;;;13.50;99.90;;;;;;5093491;28;20074;-86
2023/05/12 03:20:57;;;;;;;15.40;8.55;;;13.40;99.90;;;;;;5092810;28;20030;-86
2023/05/12 03:23:23;;;;;;;15.90;8.57;;;13.40;99.90;;;;;;5092943;28;20354;-85
2023/05/12 03:25:49;;;;;;;18.60;8.55;;;13.40;99.90;;;;;;5094032;28;20024;-85
2023/05/12 03:28:14;;;;;;;16.38;7.85;;;13.50;99.90;;;;;;5093406;28;20028;-84
2023/05/12 03:30:40;;;;;;;15.60;8.75;;;13.50;99.90;;;;;;5093815;28;20514;-86
2023/05/12 03:33:08;;;;;;;13.00;7.82;;;13.40;99.90;;;;;;5092964;28;20030;-85
2023/05/12 03:35:33;;;;;;;15.63;7.80;;;13.40;99.90;;;;;;5093322;28;20032;-85
2023/05/12 03:37:59;;;;;;;15.57;8.32;;;13.40;99.90;;;;;;5092289;28;20073;-85
2023/05/12 03:40:24;;;;;;;15.18;7.68;;;13.40;99.90;;;;;;5094070;28;20063;-85
2023/05/12 03:42:50;;;;;;;13.90;7.90;;;13.40;99.90;;;;;;5092848;28;20017;-84
2023/05/12 03:45:16;;;;;;;16.10;7.75;;;13.40;99.90;;;;;;5093310;28;20028;-84
2023/05/12 03:47:42;;;;;;;16.92;8.00;;;13.40;99.90;;;;;;5092719;28;20051;-86
2023/05/12 03:50:08;;;;;;;14.50;7.60;;;13.40;99.90;;;;;;5094031;28;20055;-84
2023/05/12 03:52:36;;;;;;;14.93;7.72;;;13.50;99.90;;;;;;5093201;28;20024;-85
2023/05/12 03:55:01;;;;;;;14.68;7.72;;;13.40;99.90;;;;;;5092514;28;20028;-85
2023/05/12 03:57:27;;;;;;;13.57;7.88;;;13.40;99.90;;;;;;5094010;28;20046;-84
2023/05/12 03:59:52;;;;;;;16.20;8.40;;;13.40;99.90;;;;;;5092431;28;20024;-85
2023/05/12 04:02:20;;;;;;;14.20;8.13;;;13.40;99.90;;;;;;5093779;28;20027;-89
2023/05/12 04:04:50;;;;;;;15.68;8.65;;;13.40;99.90;;;;;;5092357;28;20036;-88
2023/05/12 04:07:16;;;;;;;16.17;8.18;;;13.40;99.90;;;;;;5093034;28;20174;-87
2023/05/12 04:09:44;;;;;;;13.27;7.82;;;13.40;99.90;;;;;;5093625;28;20472;-86
2023/05/12 04:12:17;;;;;;;14.32;7.78;;;13.40;99.90;;;;;;5092523;28;20024;-86
2023/05/12 04:14:45;;;;;;;19.10;8.18;;;13.40;99.90;;;;;;5092159;28;20028;-90
2023/05/12 04:17:11;;;;;;;15.00;7.90;;;13.40;99.90;;;;;;5089944;28;20089;-86
2023/05/12 04:19:36;;;;;;;16.60;8.13;;;13.40;99.90;;;;;;5095297;28;20354;-85
2023/05/12 04:22:02;;;;;;;13.60;7.80;;;13.30;99.90;;;;;;5096738;28;20031;-85
2023/05/12 04:24:28;;;;;;;14.48;7.63;;;13.30;99.90;;;;;;5096477;28;20058;-86
2023/05/12 04:26:56;;;;;;;15.43;8.20;;;13.30;99.90;;;;;;5095699;28;20062;-87
2023/05/12 04:29:21;;;;;;;14.65;8.15;;;13.40;99.90;;;;;;5096343;28;20024;-87
2023/05/12 04:31:47;;;;;;;15.18;8.45;;;13.30;99.90;;;;;;5095696;28;20055;-85
2023/05/12 04:34:12;;;;;;;16.65;7.97;;;13.40;99.90;;;;;;5095972;28;20089;-84
2023/05/12 04:36:38;;;;;;;15.43;7.75;;;13.40;99.90;;;;;;5095742;28;20062;-85
2023/05/12 04:39:04;;;;;;;16.88;8.07;;;13.40;99.90;;;;;;5095195;28;20044;-84
2023/05/12 04:41:29;;;;;;;15.40;7.90;;;13.40;99.90;;;;;;5096961;28;20024;-84
2023/05/12 04:43:55;;;;;;;12.55;7.47;;;13.40;99.90;;;;;;5095454;28;20111;-86
2023/05/12 04:46:23;;;;;;;12.63;7.15;;;13.40;99.90;;;;;;5096528;28;20160;-86
2023/05/12 04:48:49;;;;;;;13.80;8.13;;;13.40;99.90;;;;;;5096362;28;20032;-86
2023/05/12 04:51:14;;;;;;;13.05;7.60;;;13.40;99.90;;;;;;5095500;28;20028;-84
2023/05/12 04:53:40;;;;;;;13.82;6.47;;;13.40;99.90;;;;;;5096989;28;20024;-84
2023/05/12 04:56:06;;;;;;;10.05;6.18;;;13.50;99.90;;;;;;5095119;28;20692;-85
2023/05/12 04:58:31;;;;;;;12.45;6.28;;;13.50;99.90;;;;;;5095663;28;20488;-85
2023/05/12 05:00:57;;;;;;;9.90;6.10;;;13.50;99.90;;;;;;5095166;28;20076;-85
2023/05/12 05:03:22;;;;;;;11.48;6.57;;;13.40;99.90;;;;;;5095763;28;20058;-84
2023/05/12 05:05:48;;;;;;;8.25;5.57;;;13.50;99.90;;;;;;5095654;28;20107;-86
2023/05/12 05:08:14;;;;;;;8.80;5.65;;;13.50;99.90;;;;;;5095688;28;20028;-86
2023/05/12 05:10:39;;;;;;;10.32;6.13;;;13.50;99.90;;;;;;5096070;28;20379;-85
2023/05/12 05:13:05;;;;;;;8.10;4.88;;;13.50;99.90;;;;;;5094899;28;20024;-86
2023/05/12 05:15:30;;;;;;;9.95;5.35;;;13.50;99.90;;;;;;5098018;28;20035;-86
2023/05/12 05:17:56;;;;;;;7.50;4.72;;;13.50;99.90;;;;;;5096234;28;20027;-86
2023/05/12 05:20:22;;;;;;;8.02;4.53;;;13.50;99.90;;;;;;5095509;28;20035;-85
2023/05/12 05:22:48;;;;;;;8.85;4.10;;;13.50;99.90;;;;;;5095100;28;20085;-87
2023/05/12 05:25:13;;;;;;;6.63;4.32;;;13.60;99.90;;;;;;5094857;28;20024;-85
2023/05/12 05:27:39;;;;;;;5.72;3.75;;;13.60;99.90;;;;;;5094181;28;20082;-85
2023/05/12 05:30:07;;;;;;;6.30;3.92;;;13.60;99.90;;;;;;5094664;28;20111;-84
2023/05/12 05:32:39;;;;;;;6.85;4.20;;;13.60;99.90;;;;;;5095276;28;20028;-85
2023/05/12 05:35:05;;;;;;;8.15;4.35;;;13.70;99.90;;;;;;5094831;28;20131;-85
2023/05/12 05:37:30;;;;;;;6.53;3.58;;;13.80;99.90;;;;;;5095917;28;20103;-87
2023/05/12 05:39:56;;;;;;;5.93;3.92;;;13.80;99.90;;;;;;5094020;28;20500;-87
2023/05/12 05:42:22;;;;;;;8.40;3.80;;;13.80;99.90;;;;;;5094157;28;20032;-87
2023/05/12 05:44:47;;;;;;;5.32;3.50;;;13.80;99.90;;;;;;5094066;28;20040;-89
2023/05/12 05:47:13;;;;;;;5.20;3.28;;;13.80;99.90;;;;;;5107961;28;20021;-87
2023/05/12 05:49:38;;;;;;;5.25;2.90;;;13.90;99.90;;;;;;5094329;28;20028;-86
2023/05/12 05:52:04;;;;;;;8.07;3.60;;;13.90;99.90;;;;;;5094233;28;20044;-87
2023/05/12 05:54:30;;;;;;;7.38;4.25;;;14.00;99.90;;;;;;5095607;28;20537;-86
2023/05/12 05:56:55;;;;;;;8.25;4.15;;;14.00;99.90;;;;;;5094192;28;20016;-87
2023/05/12 05:59:21;;;;;;;7.40;4.75;;;14.00;99.90;;;;;;5094240;28;20054;-87
2023/05/12 06:01:46;;;;;;;8.68;5.20;;;13.90;99.90;;;;;;5095151;28;20040;-87
2023/05/12 06:04:14;;;;;;;9.95;5.40;;;14.00;99.90;;;;;;5094486;28;20119;-86
2023/05/12 06:06:40;;;;;;;10.18;5.07;;;14.00;99.90;;;;;;5094301;28;20024;-86
2023/05/12 06:09:06;;;;;;;10.27;5.57;;;13.90;99.90;;;;;;5093977;28;20020;-86
2023/05/12 06:11:31;;;;;;;10.65;5.72;;;13.90;99.90;;;;;;5094201;28;20027;-86
2023/05/12 06:13:57;;;;;;;11.48;6.35;;;13.90;99.90;;;;;;5095074;28;20037;-86
2023/05/12 06:16:22;;;;;;;10.32;5.82;;;14.00;99.90;;;;;;5094339;28;20073;-86
2023/05/12 06:18:48;;;;;;;11.88;6.25;;;14.00;99.90;;;;;;5093704;28;20092;-88
2023/05/12 06:21:13;;;;;;;10.65;6.03;;;14.00;99.90;;;;;;5094194;28;20024;-87
2023/05/12 06:23:39;;;;;;;10.57;5.70;;;14.20;99.90;;;;;;5094120;28;20020;-84
2023/05/12 06:26:06;;;;;;;9.95;5.85;;;14.10;99.90;;;;;;5094249;28;20031;-86
2023/05/12 06:28:32;;;;;;;10.90;6.03;;;14.20;99.90;;;;;;5093648;28;20020;-86
2023/05/12 06:30:58;;;;;;;12.75;5.88;;;14.20;99.90;;;;;;5092184;28;20480;-83
2023/05/12 06:33:24;;;;;;;8.95;5.70;;;14.20;99.90;;;;;;5093956;28;20012;-84
2023/05/12 06:35:50;;;;;;;10.23;5.75;;;14.30;99.90;;;;;;5093848;28;20449;-87
2023/05/12 06:38:15;;;;;;;10.43;5.75;;;14.30;99.90;;;;;;5093523;28;20025;-88
2023/05/12 06:40:41;;;;;;;11.77;6.20;;;14.30;99.90;;;;;;5092848;28;20063;-87
2023/05/12 06:43:06;;;;;;;11.02;6.05;;;14.30;99.90;;;;;;5093103;28;20204;-87
2023/05/12 06:45:32;;;;;;;7.75;5.10;;;14.40;99.90;;;;;;5095307;28;20104;-87
2023/05/12 06:47:57;;;;;;;8.43;4.80;;;14.40;99.90;;;;;;5104835;28;20039;-87
2023/05/12 06:50:23;;;;;;;7.90;4.82;;;14.50;99.90;;;;;;5093045;28;20049;-87
2023/05/12 06:52:49;;;;;;;7.65;4.65;;;14.50;99.90;;;;;;5093763;28;20016;-86
2023/05/12 06:55:18;;;;;;;6.10;3.95;;;14.50;99.90;;;;;;5077389;28;20065;-86
2023/05/12 06:57:44;;;;;;;7.43;3.38;;;14.50;99.90;;;;;;5094444;28;20016;-86
2023/05/12 07:00:10;;;;;;;8.52;3.50;;;14.60;99.90;;;;;;5092704;28;20085;-85
2023/05/12 07:02:35;;;;;;;5.63;3.47;;;14.60;99.90;;;;;;5093232;28;20537;-86
2023/05/12 07:05:01;;;;;;;5.78;3.55;;;14.70;99.90;;;;;;5092661;28;20023;-86
2023/05/12 07:07:26;;;;;;;5.60;3.40;;;14.70;99.90;;;;;;5092604;28;20377;-86
2023/05/12 07:09:52;;;;;;;5.18;3.20;;;14.70;99.90;;;;;;5093422;28;20052;-89
2023/05/12 07:12:18;;;;;;;5.35;3.47;;;14.80;99.90;;;;;;5091708;28;20059;-85
2023/05/12 07:14:43;;;;;;;4.53;3.05;;;14.90;99.90;;;;;;5092834;28;20020;-85
2023/05/12 07:17:09;;;;;;;5.78;3.58;;;15.00;99.90;;;;;;5094637;28;20423;-85
2023/05/12 07:19:35;;;;;;;5.20;3.40;;;15.00;99.90;;;;;;5092520;28;20032;-85
2023/05/12 07:22:01;;;;;;;4.82;3.20;;;15.00;99.90;;;;;;5093459;28;20023;-85
2023/05/12 07:24:26;;;;;;;4.88;3.47;;;15.00;99.90;;;;;;5093989;28;20341;-85
2023/05/12 07:26:55;;;;;;;5.32;3.10;;;15.00;99.90;;;;;;5092972;28;20212;-85
2023/05/12 07:29:21;;;;;;;4.43;2.97;;;14.90;99.90;;;;;;5092547;28;20445;-84
2023/05/12 07:31:47;;;;;;;4.22;2.95;;;15.10;99.90;;;;;;5092633;28;20027;-87
2023/05/12 07:34:13;;;;;;;3.22;2.60;;;15.10;99.90;;;;;;5092782;28;20393;-87
2023/05/12 07:36:39;;;;;;;4.22;2.75;;;15.10;99.90;;;;;;5092905;28;20032;-86
2023/05/12 07:39:05;;;;;;;6.90;2.83;;;15.20;99.90;;;;;;5091871;28;20031;-87
2023/05/12 07:41:30;;;;;;;3.72;2.72;;;15.10;99.90;;;;;;5092779;28;20051;-86
2023/05/12 07:43:56;;;;;;;4.63;3.15;;;15.10;99.90;;;;;;5093309;28;20045;-86
2023/05/12 07:46:21;;;;;;;4.40;2.80;;;15.10;99.90;;;;;;5094795;28;20032;-85
2023/05/12 07:48:47;;;;;;;5.88;3.50;;;15.20;99.90;;;;;;5096459;28;20028;-86
2023/05/12 07:51:15;;;;;;;5.20;3.17;;;15.30;99.90;;;;;;5093922;28;20038;-87
2023/05/12 07:53:43;;;;;;;6.03;3.22;;;15.30;99.90;;;;;;5096969;28;20055;-87
2023/05/12 07:56:09;;;;;;;4.78;3.50;;;15.40;99.90;;;;;;5095639;28;20024;-86
2023/05/12 07:58:38;;;;;;;5.00;3.45;;;15.50;99.90;;;;;;5096056;28;20456;-85
2023/05/12 08:01:08;;;;;;;7.22;4.20;;;15.60;99.90;;;;;;5095914;28;20027;-83
2023/05/12 08:03:34;;;;;;;6.15;3.83;;;15.70;99.90;;;;;;5096831;28;20024;-85
2023/05/12 08:06:00;;;;;;;8.10;4.15;;;15.80;99.90;;;;;;5095829;28;20024;-86
2023/05/12 08:08:25;;;;;;;6.72;4.45;;;15.80;99.90;;;;;;5096803;28;20024;-85
2023/05/12 08:10:55;;;;;;;6.18;4.35;;;15.80;99.90;;;;;;5097259;28;20073;-86
2023/05/12 08:13:21;;;;;;;4.43;3.58;;;15.80;99.90;;;;;;5096758;28;20429;-84
2023/05/12 08:15:48;;;;;;;5.05;3.40;;;15.70;99.90;;;;;;5100672;28;20114;-84
2023/05/12 08:18:14;;;;;;;6.20;4.22;;;15.70;99.90;;;;;;5095583;28;20024;-87
2023/05/12 08:20:40;;;;;;;6.20;3.95;;;15.60;99.90;;;;;;5096047;28;20077;-86
2023/05/12 08:23:09;;;;;;;4.68;3.30;;;15.50;99.90;;;;;;5095785;28;20024;-85
2023/05/12 08:25:35;;;;;;;5.40;3.13;;;15.50;99.90;;;;;;5096188;28;20148;-85
2023/05/12 08:28:02;;;;;;;3.80;3.10;;;15.40;99.90;;;;;;5095563;28;20094;-86
2023/05/12 08:30:27;;;;;;;4.78;3.33;;;15.40;99.90;;;;;;5095966;28;20027;-85
2023/05/12 08:32:56;;;;;;;4.85;3.33;;;15.40;99.90;;;;;;5095607;28;20020;-88
2023/05/12 08:35:25;;;;;;;4.22;3.20;;;15.30;99.90;;;;;;5096069;28;20097;-86
2023/05/12 08:37:51;;;;;;;4.43;3.13;;;15.30;99.90;;;;;;5096809;28;20098;-86
2023/05/12 08:40:20;;;;;;;5.05;3.40;;;15.30;99.90;;;;;;5094392;28;20060;-86
2023/05/12 08:43:12;;;;;;;6.40;3.40;;;15.20;99.90;;;;;;5096138;28;20023;-83
2023/05/12 08:45:39;;;;;;;4.55;3.25;;;15.10;99.90;;;;;;5081999;28;20153;-85
2023/05/12 08:48:08;;;;;;;5.35;3.50;;;15.30;99.90;;;;;;5078050;28;20024;-85
2023/05/12 08:50:39;;;;;;;5.43;3.60;;;15.30;99.90;;;;;;5088738;28;20067;-85
2023/05/12 08:53:09;;;;;;;5.57;3.28;;;15.40;99.90;;;;;;5095644;28;20028;-89
2023/05/12 08:55:35;;;;;;;4.90;3.20;;;15.50;99.90;;;;;;5095220;28;20035;-92
2023/05/12 08:58:02;;;;;;;3.78;2.83;;;15.70;99.90;;;;;;5094228;28;20460;-92
2023/05/12 09:00:29;;;;;;;3.30;2.22;;;15.70;99.90;;;;;;5094281;28;20021;-90
2023/05/12 09:02:57;;;;;;;2.88;2.22;;;15.80;99.90;;;;;;5094128;28;20028;-89
2023/05/12 09:05:23;;;;;;;2.85;1.90;;;15.90;99.90;;;;;;5094242;28;20058;-92
2023/05/12 09:07:50;;;;;;;2.38;1.80;;;16.00;99.90;;;;;;5093453;28;20028;-89
2023/05/12 09:10:18;;;;;;;2.17;1.40;;;16.10;99.90;;;;;;5094146;28;20067;-89
2023/05/12 09:12:46;;;;;;;2.10;1.60;;;16.20;99.90;;;;;;5094299;28;20106;-91
2023/05/12 09:15:26;;;;;;;2.45;1.60;;;16.30;99.90;;;;;;5090923;28;20019;-91
2023/05/12 09:17:51;;;;;;;2.20;1.48;;;16.30;99.90;;;;;;5093603;28;20020;-90
2023/05/12 09:20:18;;;;;;;3.15;1.40;;;16.40;99.90;;;;;;5093040;28;20032;-91
2023/05/12 09:22:43;;;;;;;4.38;1.90;;;16.40;99.90;;;;;;5094335;28;20201;-88
2023/05/12 09:25:17;;;;;;;2.50;1.50;;;16.40;99.90;;;;;;5093867;28;20058;-90
2023/05/12 09:27:45;;;;;;;2.13;1.52;;;16.40;99.90;;;;;;5093299;28;20035;-83
2023/05/12 09:30:11;;;;;;;3.40;1.38;;;16.40;99.90;;;;;;5093392;28;20047;-84
2023/05/12 09:32:37;;;;;;;1.67;1.10;;;16.50;99.90;;;;;;5095144;28;20020;-83
2023/05/12 09:35:05;;;;;;;1.75;1.50;;;16.50;99.90;;;;;;5094900;28;20030;-84
2023/05/12 09:37:32;;;;;;;2.20;1.42;;;16.50;99.90;;;;;;5095050;28;20040;-83
2023/05/12 09:40:03;;;;;;;2.05;1.52;;;16.30;99.90;;;;;;5092652;28;20044;-84
2023/05/12 09:42:30;;;;;;;3.60;1.90;;;16.30;99.90;;;;;;5094884;28;20461;-84
2023/05/12 09:45:08;;;;;;;2.55;1.58;;;16.20;99.90;;;;;;5093466;28;20028;-84
2023/05/12 09:47:38;;;;;;;2.20;1.80;;;16.20;99.90;;;;;;5083427;28;20028;-84
2023/05/12 09:50:05;;;;;;;2.75;1.85;;;16.20;99.90;;;;;;5093561;28;20016;-83
2023/05/12 09:52:36;;;;;;;2.20;1.90;;;16.10;99.90;;;;;;5093264;28;20028;-84
2023/05/12 09:55:09;;;;;;;2.92;1.65;;;16.10;99.90;;;;;;5093848;28;20056;-83
2023/05/12 09:57:40;;;;;;;3.67;1.90;;;16.10;99.90;;;;;;5093697;28;20027;-84
2023/05/12 10:00:08;;;;;;;3.53;1.88;;;16.00;99.90;;;;;;5092161;28;20024;-84
2023/05/12 10:02:35;;;;;;;3.95;1.73;;;16.00;99.90;;;;;;5092949;28;20032;-84
2023/05/12 10:05:05;;;;;;;2.40;1.73;;;16.00;99.90;;;;;;5094111;28;20023;-82
2023/05/12 10:07:32;;;;;;;2.92;1.40;;;15.90;99.90;;;;;;5093434;28;20028;-81
2023/05/12 10:10:01;;;;;;;1.88;1.40;;;15.90;99.90;;;;;;5092527;28;20020;-82
2023/05/12 10:12:27;;;;;;;2.35;1.50;;;16.00;99.90;;;;;;5093983;28;20044;-80
2023/05/12 10:14:54;;;;;;;4.70;1.60;;;16.00;99.90;;;;;;5093018;28;20066;-80
2023/05/12 10:17:20;;;;;;;8.60;1.58;;;16.00;99.90;;;;;;5093273;28;20016;-79
2023/05/12 10:19:46;;;;;;;0.75;0.63;;;16.20;99.90;;;;;;5092185;28;20036;-80
2023/05/12 10:22:16;;;;;;;0.70;0.60;;;16.30;99.90;;;;;;5092547;28;20403;-80
2023/05/12 10:24:43;;;;;;;0.77;0.75;;;16.30;99.90;;;;;;5091510;28;20031;-89
2023/05/12 10:27:10;;;;;;;0.77;0.50;;;16.40;99.90;;;;;;5092533;28;20396;-87
2023/05/12 10:29:37;;;;;;;1.00;0.90;;;16.50;99.90;;;;;;5080203;28;20052;-91
2023/05/12 10:32:02;;;;;;;5.68;2.10;;;16.50;99.90;;;;;;5092457;28;20343;-91
2023/05/12 10:34:40;;;;;;;3.92;2.40;;;16.60;99.90;;;;;;5094065;28;20023;-89
2023/05/12 10:37:12;;;;;;;2.92;1.70;;;16.50;99.90;;;;;;5092572;28;20012;-88
2023/05/12 10:39:59;;;;;;;1.25;1.00;;;16.50;99.90;;;;;;5091090;28;20047;-90
2023/05/12 10:42:25;;;;;;;2.35;1.40;;;16.40;99.90;;;;;;5092716;28;20020;-85
2023/05/12 10:44:55;;;;;;;3.13;1.48;;;16.50;99.90;;;;;;5092510;28;20334;-86
2023/05/12 10:47:37;;;;;;;2.70;1.77;;;16.50;99.90;;;;;;5092472;28;20020;-89
2023/05/12 10:50:03;;;;;;;2.25;1.70;;;16.50;99.90;;;;;;5093553;28;20024;-85
2023/05/12 10:52:28;;;;;;;2.38;1.75;;;16.50;99.90;;;;;;5092783;28;20057;-85
2023/05/12 10:55:02;;;;;;;3.47;1.65;;;16.70;99.90;;;;;;5091986;28;20027;-86
2023/05/12 10:57:29;;;;;;;2.00;1.73;;;16.80;99.90;;;;;;5079940;28;20028;-87
2023/05/12 10:59:59;;;;;;;2.67;2.20;;;16.80;99.90;;;;;;5094508;28;20020;-88
2023/05/12 11:02:32;;;;;;;1.40;1.30;;;16.90;99.90;;;;;;5096729;28;20024;-90
2023/05/12 11:05:03;;;;;;;1.73;1.60;;;16.70;99.90;;;;;;5093229;28;20036;-84
2023/05/12 11:07:31;;;;;;;1.80;1.50;;;16.60;99.90;;;;;;5078581;28;20027;-84
2023/05/12 11:10:00;;;;;;;1.60;1.50;;;16.60;99.90;;;;;;5091766;28;20020;-84
2023/05/12 11:12:30;;;;;;;3.20;1.45;;;16.60;99.90;;;;;;5094191;28;20031;-85
2023/05/12 11:14:59;;;;;;;2.35;1.52;;;16.60;99.90;;;;;;5091636;28;20019;-86
2023/05/12 11:17:25;;;;;;;1.25;1.15;;;16.60;99.90;;;;;;5095177;28;20020;-91
2023/05/12 11:19:51;;;;;;;1.83;1.55;;;16.70;99.90;;;;;;5101619;28;20046;-89
2023/05/12 11:22:20;;;;;;;1.70;1.35;;;16.70;99.90;;;;;;5106841;28;20076;-89
2023/05/12 11:24:46;;;;;;;1.60;1.48;;;16.80;99.90;;;;;;5100297;28;20028;-88
2023/05/12 11:27:14;;;;;;;1.55;1.42;;;17.00;99.90;;;;;;5097700;28;20031;-87
2023/05/12 11:29:41;;;;;;;1.55;1.10;;;17.20;99.90;;;;;;5102456;28;20035;-90
2023/05/12 11:32:09;;;;;;;1.75;1.13;;;17.40;99.90;;;;;;5106818;28;20032;-92
2023/05/12 11:34:34;;;;;;;1.40;1.30;;;17.60;99.90;;;;;;5093274;28;20028;-89
2023/05/12 11:37:03;;;;;;;1.27;1.15;;;17.60;99.90;;;;;;5099216;28;20028;-89
2023/05/12 11:39:31;;;;;;;1.63;1.00;;;17.80;99.90;;;;;;5088681;28;20046;-90
2023/05/12 11:42:03;;;;;;;4.75;1.30;;;17.90;99.90;;;;;;5105873;28;20024;-91
2023/05/12 11:44:28;;;;;;;2.78;1.40;;;18.00;99.90;;;;;;5102002;28;20035;-90
2023/05/12 11:46:58;;;;;;;1.63;1.50;;;18.10;99.90;;;;;;5102569;28;20050;-89
2023/05/12 11:49:25;;;;;;;2.45;1.45;;;18.00;99.90;;;;;;5098470;28;20028;-90
2023/05/12 11:51:58;;;;;;;2.63;1.60;;;17.90;99.90;;;;;;5090889;28;20028;-90
2023/05/12 11:54:26;;;;;;;3.03;1.75;;;17.70;99.90;;;;;;5092596;28;20024;-91
2023/05/12 11:56:53;;;;;;;3.10;2.10;;;17.60;99.90;;;;;;5093427;28;20445;-90
2023/05/12 11:59:33;;;;;;;3.13;2.10;;;17.70;99.90;;;;;;5091427;28;20107;-93
2023/05/12 12:02:00;;;;;;;3.95;2.03;;;17.80;99.90;;;;;;5092553;28;20464;-92
2023/05/12 12:04:33;;;;;;;2.55;1.95;;;18.00;99.90;;;;;;5093078;28;20069;-91
2023/05/12 12:07:00;;;;;;;2.45;1.70;;;18.00;99.90;;;;;;5091752;28;20039;-90
2023/05/12 12:09:39;;;;;;;2.08;1.50;;;18.00;99.90;;;;;;5093013;28;20024;-88
2023/05/12 12:12:06;;;;;;;1.58;1.48;;;17.80;99.90;;;;;;5092447;28;20021;-92
2023/05/12 12:14:34;;;;;;;1.52;1.20;;;17.60;99.90;;;;;;5091847;28;20051;-91
2023/05/12 12:17:00;;;;;;;2.55;1.55;;;17.50;99.90;;;;;;5090054;28;20020;-89
2023/05/12 12:19:27;;;;;;;5.55;1.50;;;17.50;99.90;;;;;;5077049;28;20031;-89
2023/05/12 12:21:56;;;;;;;1.73;1.60;;;17.30;99.90;;;;;;5093456;28;20500;-91
2023/05/12 12:24:23;;;;;;;1.90;1.70;;;17.40;99.90;;;;;;5091485;28;20032;-91
2023/05/12 12:26:49;;;;;;;1.55;1.45;;;17.20;99.90;;;;;;5092424;28;20031;-90
2023/05/12 12:29:15;;;;;;;4.32;1.95;;;17.30;99.90;;;;;;5091646;28;20031;-89
2023/05/12 12:31:41;;;;;;;2.22;1.70;;;17.50;99.90;;;;;;5092216;28;20024;-89
2023/05/12 12:34:06;;;;;;;2.63;2.10;;;17.80;99.90;;;;;;5092009;28;20027;-91
2023/05/12 12:36:32;;;;;;;2.75;1.77;;;18.20;99.90;;;;;;5091556;28;20085;-91
2023/05/12 12:39:02;;;;;;;3.17;2.08;;;18.50;99.90;;;;;;5094442;28;20024;-91
2023/05/12 12:41:30;;;;;;;3.78;1.80;;;18.60;99.90;;;;;;5094721;28;20472;-91